createdAt,value
2016-09-16T00:00:57.414Z,0
2016-09-16T00:01:57.173Z,0
2016-09-16T00:03:01.533Z,0
2016-09-16T00:03:58.462Z,0
2016-09-16T00:04:58.856Z,0
2016-09-16T00:05:58.891Z,0
2016-09-16T00:07:01.189Z,0
2016-09-16T00:07:59.837Z,0
2016-09-16T00:08:59.475Z,0
2016-09-16T00:09:57.626Z,0
2016-09-16T00:10:58.942Z,0
2016-09-16T00:11:59.317Z,0
2016-09-16T00:12:59.610Z,0
2016-09-16T00:13:59.711Z,0
2016-09-16T00:14:59.553Z,0
2016-09-16T00:15:58.139Z,0
2016-09-16T00:17:00.025Z,0
2016-09-16T00:17:59.607Z,0
2016-09-16T00:18:58.602Z,0
2016-09-16T00:19:59.033Z,0
2016-09-16T00:20:59.921Z,0
2016-09-16T00:21:58.346Z,0
2016-09-16T00:22:58.841Z,0
2016-09-16T00:23:59.350Z,0
2016-09-16T00:24:58.892Z,0
2016-09-16T00:26:00.176Z,0
2016-09-16T00:26:59.141Z,0
2016-09-16T00:27:59.737Z,0
2016-09-16T00:28:59.440Z,0
2016-09-16T00:30:01.783Z,0
2016-09-16T00:30:59.757Z,0
2016-09-16T00:32:00.992Z,0
2016-09-16T00:32:58.467Z,0
2016-09-16T00:33:59.856Z,0
2016-09-16T00:35:00.018Z,0
2016-09-16T00:35:59.398Z,0
2016-09-16T00:36:59.443Z,0
2016-09-16T00:38:01.149Z,0
2016-09-16T00:38:59.814Z,0
2016-09-16T00:40:00.004Z,0
2016-09-16T00:40:59.389Z,0
2016-09-16T00:41:59.379Z,0
2016-09-16T00:42:59.647Z,0
2016-09-16T00:44:00.208Z,0
2016-09-16T00:44:59.201Z,0
2016-09-16T00:45:59.491Z,0
2016-09-16T00:46:59.801Z,0
2016-09-16T00:47:59.873Z,0
2016-09-16T00:49:01.215Z,0
2016-09-16T00:50:02.075Z,0
2016-09-16T00:51:00.167Z,0
2016-09-16T00:52:00.339Z,0
2016-09-16T00:52:59.438Z,0
2016-09-16T00:54:00.321Z,0
2016-09-16T00:55:00.413Z,0
2016-09-16T00:55:59.804Z,0
2016-09-16T00:57:01.167Z,0
2016-09-16T00:58:00.410Z,0
2016-09-16T00:59:00.510Z,0
2016-09-16T00:59:59.854Z,0
2016-09-16T01:01:00.077Z,0
2016-09-16T01:02:00.041Z,0
2016-09-16T01:03:00.241Z,0
2016-09-16T01:04:00.613Z,0
2016-09-16T01:05:01.605Z,0
2016-09-16T01:06:00.273Z,0
2016-09-16T01:07:00.065Z,0
2016-09-16T01:08:00.577Z,0
2016-09-16T01:09:00.168Z,0
2016-09-16T01:10:01.819Z,0
2016-09-16T01:11:01.389Z,0
2016-09-16T01:12:01.883Z,0
2016-09-16T01:13:00.097Z,0
2016-09-16T01:14:02.221Z,0
2016-09-16T01:14:59.989Z,0
2016-09-16T01:16:00.358Z,0
2016-09-16T01:16:59.826Z,0
2016-09-16T01:18:00.349Z,0
2016-09-16T01:19:00.365Z,0
2016-09-16T01:20:01.917Z,0
2016-09-16T01:21:00.507Z,0
2016-09-16T01:22:01.352Z,0
2016-09-16T01:23:01.679Z,0
2016-09-16T01:24:00.402Z,0
2016-09-16T01:25:00.291Z,0
2016-09-16T01:26:00.522Z,0
2016-09-16T01:27:01.303Z,0
2016-09-16T01:28:00.390Z,0
2016-09-16T01:29:02.447Z,0
2016-09-16T01:30:02.670Z,0
2016-09-16T01:31:02.057Z,0
2016-09-16T01:32:00.274Z,0
2016-09-16T01:33:01.082Z,0
2016-09-16T01:33:59.600Z,0
2016-09-16T01:35:01.096Z,0
2016-09-16T01:36:01.679Z,0
2016-09-16T01:36:59.225Z,0
2016-09-16T01:38:00.275Z,0
2016-09-16T01:39:02.589Z,0
2016-09-16T01:40:00.242Z,0
2016-09-16T01:41:01.762Z,0
2016-09-16T01:42:02.118Z,0
2016-09-16T01:43:01.098Z,0
2016-09-16T01:44:00.825Z,0
2016-09-16T01:45:00.033Z,0
2016-09-16T01:46:01.201Z,0
2016-09-16T01:47:00.041Z,0
2016-09-16T01:48:00.666Z,0
2016-09-16T01:49:00.668Z,0
2016-09-16T01:50:00.010Z,0
2016-09-16T01:50:59.734Z,0
2016-09-16T01:52:02.101Z,0
2016-09-16T01:53:00.051Z,0
2016-09-16T01:54:01.084Z,0
2016-09-16T01:55:01.695Z,0
2016-09-16T01:56:00.356Z,0
2016-09-16T01:57:01.598Z,0
2016-09-16T01:58:02.423Z,0
2016-09-16T01:59:01.781Z,0
2016-09-16T02:00:02.158Z,0
2016-09-16T02:01:00.589Z,0
2016-09-16T02:02:01.075Z,0
2016-09-16T02:03:01.157Z,0
2016-09-16T02:04:01.128Z,0
2016-09-16T02:05:00.572Z,0
2016-09-16T02:06:01.385Z,0
2016-09-16T02:07:01.701Z,0
2016-09-16T02:08:01.738Z,0
2016-09-16T02:09:01.484Z,0
2016-09-16T02:10:01.398Z,0
2016-09-16T02:11:00.692Z,0
2016-09-16T02:12:02.256Z,0
2016-09-16T02:13:01.385Z,0
2016-09-16T02:14:02.172Z,0
2016-09-16T02:15:00.981Z,0
2016-09-16T02:16:02.454Z,0
2016-09-16T02:17:05.073Z,0
2016-09-16T02:18:02.984Z,0
2016-09-16T02:19:01.733Z,0
2016-09-16T02:20:02.249Z,0
2016-09-16T02:21:02.557Z,0
2016-09-16T02:22:02.195Z,0
2016-09-16T02:23:00.882Z,0
2016-09-16T02:24:02.277Z,0
2016-09-16T02:25:01.744Z,0
2016-09-16T02:26:02.310Z,0
2016-09-16T02:27:01.698Z,0
2016-09-16T02:28:01.743Z,0
2016-09-16T02:29:01.813Z,0
2016-09-16T02:30:00.507Z,0
2016-09-16T02:31:01.869Z,0
2016-09-16T02:32:01.440Z,0
2016-09-16T02:33:02.061Z,0
2016-09-16T02:34:00.450Z,0
2016-09-16T02:35:03.058Z,0
2016-09-16T02:36:03.489Z,0
2016-09-16T02:37:02.013Z,0
2016-09-16T02:38:02.161Z,0
2016-09-16T02:39:02.176Z,0
2016-09-16T02:40:00.852Z,0
2016-09-16T02:41:03.143Z,0
2016-09-16T02:42:01.597Z,0
2016-09-16T02:43:02.349Z,0
2016-09-16T02:44:03.895Z,0
2016-09-16T02:45:02.804Z,0
2016-09-16T02:46:01.648Z,0
2016-09-16T02:47:02.491Z,0
2016-09-16T02:48:02.893Z,0
2016-09-16T02:49:01.857Z,0
2016-09-16T02:50:02.657Z,0
2016-09-16T02:51:01.582Z,0
2016-09-16T02:52:02.835Z,0
2016-09-16T02:53:00.679Z,0
2016-09-16T02:54:01.654Z,0
2016-09-16T02:55:04.257Z,0
2016-09-16T02:56:02.631Z,0
2016-09-16T02:57:03.129Z,0
2016-09-16T02:58:03.674Z,0
2016-09-16T02:59:03.416Z,0
2016-09-16T03:00:04.163Z,0
2016-09-16T03:01:03.390Z,0
2016-09-16T03:02:02.311Z,0
2016-09-16T03:03:02.692Z,0
2016-09-16T03:04:02.560Z,0
2016-09-16T03:05:01.904Z,0
2016-09-16T03:06:04.760Z,0
2016-09-16T03:07:02.522Z,0
2016-09-16T03:08:03.079Z,0
2016-09-16T03:09:04.098Z,0
2016-09-16T03:10:02.005Z,0
2016-09-16T03:11:03.356Z,0
2016-09-16T03:12:02.692Z,0
2016-09-16T03:13:02.836Z,0
2016-09-16T03:14:03.985Z,0
2016-09-16T03:15:02.398Z,0
2016-09-16T03:16:02.700Z,0
2016-09-16T03:17:03.966Z,0
2016-09-16T03:18:02.566Z,0
2016-09-16T03:19:03.270Z,0
2016-09-16T03:20:03.190Z,0
2016-09-16T03:21:04.131Z,0
2016-09-16T03:22:02.917Z,0
2016-09-16T03:23:03.921Z,0
2016-09-16T03:24:02.357Z,0
2016-09-16T03:25:02.267Z,0
2016-09-16T03:26:02.670Z,0
2016-09-16T03:27:04.929Z,0
2016-09-16T03:28:03.191Z,0
2016-09-16T03:29:03.007Z,0
2016-09-16T03:30:03.890Z,0
2016-09-16T03:31:02.409Z,0
2016-09-16T03:32:03.421Z,0
2016-09-16T03:33:02.599Z,0
2016-09-16T03:34:03.054Z,0
2016-09-16T03:35:04.995Z,0
2016-09-16T03:36:04.904Z,0
2016-09-16T03:37:03.882Z,0
2016-09-16T03:38:02.656Z,0
2016-09-16T03:39:02.339Z,0
2016-09-16T03:40:02.657Z,0
2016-09-16T03:41:04.151Z,0
2016-09-16T03:42:05.507Z,0
2016-09-16T03:43:03.088Z,0
2016-09-16T03:44:04.325Z,0
2016-09-16T03:45:02.940Z,0
2016-09-16T03:46:05.520Z,0
2016-09-16T03:47:05.273Z,0
2016-09-16T03:48:03.136Z,0
2016-09-16T03:49:02.387Z,0
2016-09-16T03:50:02.793Z,0
2016-09-16T03:51:03.005Z,0
2016-09-16T03:52:04.579Z,0
2016-09-16T03:53:05.687Z,0
2016-09-16T03:54:04.244Z,0
2016-09-16T03:55:03.408Z,0
2016-09-16T03:56:02.964Z,0
2016-09-16T03:57:03.945Z,0
2016-09-16T03:58:03.839Z,0
2016-09-16T03:59:04.943Z,0
2016-09-16T04:00:03.935Z,0
2016-09-16T04:01:04.440Z,0
2016-09-16T04:02:05.532Z,0
2016-09-16T04:03:04.492Z,0
2016-09-16T04:04:04.077Z,0
2016-09-16T04:05:04.874Z,0
2016-09-16T04:06:05.553Z,0
2016-09-16T04:07:05.832Z,0
2016-09-16T04:08:04.391Z,0
2016-09-16T04:09:03.083Z,0
2016-09-16T04:10:05.407Z,0
2016-09-16T04:11:04.825Z,0
2016-09-16T04:12:04.652Z,0
2016-09-16T04:13:05.420Z,0
2016-09-16T04:14:02.361Z,0
2016-09-16T04:15:04.775Z,0
2016-09-16T04:16:04.755Z,0
2016-09-16T04:17:05.715Z,0
2016-09-16T04:18:02.749Z,0
2016-09-16T04:19:02.564Z,0
2016-09-16T04:20:04.581Z,0
2016-09-16T04:21:03.995Z,0
2016-09-16T04:22:07.460Z,0
2016-09-16T04:23:05.489Z,0
2016-09-16T04:24:05.095Z,0
2016-09-16T04:25:05.064Z,0
2016-09-16T04:26:05.342Z,4
2016-09-16T04:27:05.409Z,0
2016-09-16T04:28:04.343Z,4
2016-09-16T04:29:06.566Z,4
2016-09-16T04:30:06.736Z,4
2016-09-16T04:31:06.692Z,4
2016-09-16T04:32:04.101Z,4
2016-09-16T04:33:05.252Z,4
2016-09-16T04:34:03.212Z,8
2016-09-16T04:35:05.775Z,8
2016-09-16T04:36:05.208Z,12
2016-09-16T04:37:04.170Z,16
2016-09-16T04:38:04.986Z,16
2016-09-16T04:39:05.954Z,16
2016-09-16T04:40:04.491Z,20
2016-09-16T04:41:05.242Z,24
2016-09-16T04:42:04.249Z,32
2016-09-16T04:43:04.733Z,36
2016-09-16T04:44:04.943Z,44
2016-09-16T04:45:07.803Z,48
2016-09-16T04:46:06.829Z,60
2016-09-16T04:47:07.123Z,68
2016-09-16T04:48:06.403Z,76
2016-09-16T04:49:04.937Z,84
2016-09-16T04:50:06.746Z,92
2016-09-16T04:51:05.985Z,104
2016-09-16T04:52:06.721Z,116
2016-09-16T04:53:05.163Z,132
2016-09-16T04:54:05.056Z,144
2016-09-16T04:55:06.109Z,152
2016-09-16T04:56:05.863Z,164
2016-09-16T04:57:05.552Z,164
2016-09-16T04:58:06.476Z,164
2016-09-16T04:59:05.665Z,156
2016-09-16T05:00:06.491Z,156
2016-09-16T05:01:08.252Z,164
2016-09-16T05:02:04.822Z,180
2016-09-16T05:03:05.368Z,200
2016-09-16T05:04:06.319Z,220
2016-09-16T05:05:06.725Z,224
2016-09-16T05:06:05.523Z,216
2016-09-16T05:07:05.925Z,192
2016-09-16T05:08:06.016Z,168
2016-09-16T05:09:07.645Z,148
2016-09-16T05:10:05.906Z,144
2016-09-16T05:11:08.260Z,140
2016-09-16T05:12:07.393Z,140
2016-09-16T05:13:05.934Z,144
2016-09-16T05:14:06.646Z,148
2016-09-16T05:15:05.126Z,152
2016-09-16T05:16:07.862Z,160
2016-09-16T05:17:06.170Z,168
2016-09-16T05:18:05.054Z,180
2016-09-16T05:19:05.035Z,192
2016-09-16T05:20:05.633Z,200
2016-09-16T05:21:05.817Z,212
2016-09-16T05:22:07.312Z,224
2016-09-16T05:23:05.695Z,232
2016-09-16T05:24:05.798Z,248
2016-09-16T05:25:06.895Z,272
2016-09-16T05:26:05.937Z,300
2016-09-16T05:27:05.312Z,320
2016-09-16T05:28:04.818Z,336
2016-09-16T05:29:06.570Z,352
2016-09-16T05:30:07.055Z,364
2016-09-16T05:31:08.200Z,380
2016-09-16T05:32:04.680Z,408
2016-09-16T05:33:06.442Z,440
2016-09-16T05:34:06.847Z,476
2016-09-16T05:35:06.037Z,532
2016-09-16T05:36:05.859Z,604
2016-09-16T05:37:07.211Z,700
2016-09-16T05:38:06.528Z,812
2016-09-16T05:39:08.423Z,924
2016-09-16T05:40:05.214Z,1000
2016-09-16T05:41:06.953Z,1064
2016-09-16T05:42:06.569Z,1128
2016-09-16T05:43:04.911Z,1208
2016-09-16T05:44:06.870Z,1304
2016-09-16T05:45:05.829Z,1412
2016-09-16T05:46:07.613Z,1524
2016-09-16T05:47:08.456Z,1620
2016-09-16T05:48:06.979Z,1684
2016-09-16T05:49:06.816Z,1756
2016-09-16T05:50:08.230Z,1868
2016-09-16T05:51:13.237Z,2032
2016-09-16T05:52:08.665Z,2212
2016-09-16T05:53:09.644Z,2428
2016-09-16T05:54:08.872Z,2664
2016-09-16T05:55:09.209Z,2908
2016-09-16T05:56:08.912Z,3188
2016-09-16T05:57:07.840Z,3516
2016-09-16T05:58:09.445Z,3892
2016-09-16T05:59:09.977Z,4288
2016-09-16T06:00:08.091Z,4696
2016-09-16T06:01:09.218Z,5044
2016-09-16T06:02:09.441Z,5300
2016-09-16T06:03:07.472Z,5288
2016-09-16T06:04:07.515Z,4944
2016-09-16T06:05:08.136Z,4364
2016-09-16T06:06:08.496Z,3820
2016-09-16T06:07:10.254Z,3408
2016-09-16T06:08:10.501Z,3152
2016-09-16T06:09:10.311Z,3028
2016-09-16T06:10:05.734Z,2984
2016-09-16T06:11:05.409Z,3008
2016-09-16T06:12:05.735Z,3128
2016-09-16T06:13:08.036Z,3464
2016-09-16T06:14:06.288Z,3868
2016-09-16T06:15:08.399Z,4172
2016-09-16T06:16:05.656Z,4252
2016-09-16T06:17:07.113Z,4472
2016-09-16T06:18:05.768Z,4968
2016-09-16T06:19:06.955Z,5412
2016-09-16T06:20:06.878Z,5620
2016-09-16T06:21:06.725Z,5776
2016-09-16T06:22:06.342Z,6148
2016-09-16T06:23:06.404Z,6748
2016-09-16T06:24:07.213Z,7312
2016-09-16T06:25:08.377Z,7588
2016-09-16T06:26:06.066Z,7760
2016-09-16T06:27:04.080Z,7960
2016-09-16T06:28:05.134Z,8236
2016-09-16T06:29:07.097Z,8728
2016-09-16T06:30:06.854Z,9332
2016-09-16T06:31:06.657Z,9744
2016-09-16T06:32:06.867Z,9704
2016-09-16T06:33:05.845Z,9188
2016-09-16T06:34:05.385Z,8052
2016-09-16T06:35:06.508Z,6564
2016-09-16T06:36:06.107Z,5248
2016-09-16T06:37:05.502Z,4400
2016-09-16T06:38:06.453Z,4012
2016-09-16T06:39:05.489Z,4120
2016-09-16T06:40:06.137Z,4716
2016-09-16T06:41:05.591Z,5404
2016-09-16T06:42:06.556Z,5976
2016-09-16T06:43:05.835Z,6300
2016-09-16T06:44:05.968Z,6520
2016-09-16T06:45:06.201Z,6584
2016-09-16T06:46:05.680Z,6580
2016-09-16T06:47:05.948Z,6548
2016-09-16T06:48:05.904Z,6580
2016-09-16T06:49:07.465Z,6776
2016-09-16T06:50:07.598Z,6800
2016-09-16T06:51:06.008Z,6668
2016-09-16T06:52:06.083Z,7024
2016-09-16T06:53:05.672Z,7844
2016-09-16T06:54:06.030Z,8648
2016-09-16T06:55:06.007Z,9064
2016-09-16T06:56:06.214Z,8896
2016-09-16T06:57:06.360Z,8172
2016-09-16T06:58:06.372Z,7548
2016-09-16T06:59:06.952Z,7420
2016-09-16T07:00:06.525Z,7656
2016-09-16T07:01:06.364Z,7948
2016-09-16T07:02:05.650Z,8144
2016-09-16T07:03:06.063Z,8268
2016-09-16T07:04:08.444Z,8352
2016-09-16T07:05:09.335Z,8472
2016-09-16T07:06:07.916Z,8668
2016-09-16T07:07:07.442Z,8988
2016-09-16T07:08:08.758Z,9484
2016-09-16T07:09:06.925Z,10036
2016-09-16T07:10:07.475Z,10604
2016-09-16T07:11:07.403Z,11036
2016-09-16T07:12:08.431Z,11364
2016-09-16T07:13:09.197Z,11468
2016-09-16T07:14:06.867Z,11036
2016-09-16T07:15:09.225Z,10824
2016-09-16T07:16:09.002Z,10640
2016-09-16T07:17:08.834Z,10092
2016-09-16T07:18:09.434Z,9664
2016-09-16T07:19:06.996Z,9816
2016-09-16T07:20:07.339Z,10232
2016-09-16T07:21:07.810Z,10924
2016-09-16T07:22:08.014Z,11944
2016-09-16T07:23:09.378Z,12860
2016-09-16T07:24:07.605Z,13488
2016-09-16T07:25:08.118Z,13944
2016-09-16T07:26:06.732Z,14400
2016-09-16T07:27:06.994Z,15084
2016-09-16T07:28:09.157Z,16124
2016-09-16T07:29:06.957Z,19136
2016-09-16T07:30:08.661Z,19488
2016-09-16T07:31:07.623Z,17568
2016-09-16T07:32:08.710Z,16076
2016-09-16T07:33:08.674Z,15232
2016-09-16T07:34:08.700Z,15964
2016-09-16T07:35:08.183Z,17600
2016-09-16T07:36:08.912Z,23040
2016-09-16T07:37:09.542Z,23136
2016-09-16T07:38:09.626Z,20448
2016-09-16T07:39:08.143Z,17856
2016-09-16T07:40:07.382Z,17440
2016-09-16T07:41:09.343Z,17728
2016-09-16T07:42:09.790Z,17504
2016-09-16T07:43:07.527Z,18048
2016-09-16T07:44:08.976Z,18016
2016-09-16T07:45:06.951Z,18976
2016-09-16T07:46:07.488Z,20352
2016-09-16T07:47:08.123Z,20352
2016-09-16T07:48:08.226Z,16276
2016-09-16T07:49:09.403Z,14696
2016-09-16T07:50:09.825Z,14768
2016-09-16T07:51:08.894Z,15892
2016-09-16T07:52:09.712Z,17568
2016-09-16T07:53:09.752Z,18720
2016-09-16T07:54:07.237Z,19072
2016-09-16T07:55:07.850Z,20608
2016-09-16T07:56:08.438Z,21856
2016-09-16T07:57:09.405Z,21888
2016-09-16T07:58:08.969Z,20544
2016-09-16T07:59:09.733Z,20160
2016-09-16T08:00:10.913Z,20128
2016-09-16T08:01:07.869Z,20448
2016-09-16T08:02:10.444Z,20224
2016-09-16T08:03:08.698Z,19968
2016-09-16T08:04:09.711Z,19840
2016-09-16T08:05:11.747Z,20096
2016-09-16T08:06:09.348Z,19840
2016-09-16T08:07:09.445Z,19392
2016-09-16T08:08:09.919Z,19040
2016-09-16T08:09:08.778Z,18848
2016-09-16T08:10:09.326Z,18816
2016-09-16T08:11:10.445Z,18784
2016-09-16T08:12:10.384Z,18688
2016-09-16T08:13:09.840Z,18432
2016-09-16T08:14:09.002Z,18112
2016-09-16T08:15:10.263Z,17600
2016-09-16T08:16:09.606Z,17184
2016-09-16T08:17:08.653Z,16864
2016-09-16T08:18:09.222Z,16864
2016-09-16T08:19:09.574Z,16864
2016-09-16T08:20:08.678Z,17024
2016-09-16T08:21:08.325Z,17184
2016-09-16T08:22:09.314Z,17504
2016-09-16T08:23:09.231Z,17920
2016-09-16T08:24:08.543Z,18336
2016-09-16T08:25:09.313Z,18176
2016-09-16T08:26:09.532Z,17344
2016-09-16T08:27:08.711Z,16244
2016-09-16T08:28:09.551Z,15328
2016-09-16T08:29:10.452Z,14500
2016-09-16T08:30:09.022Z,13868
2016-09-16T08:31:09.231Z,13452
2016-09-16T08:32:09.230Z,13276
2016-09-16T08:33:10.478Z,13196
2016-09-16T08:34:09.619Z,13164
2016-09-16T08:35:09.329Z,13024
2016-09-16T08:36:08.991Z,12768
2016-09-16T08:37:09.623Z,12428
2016-09-16T08:38:09.774Z,12172
2016-09-16T08:39:08.762Z,12136
2016-09-16T08:40:10.997Z,12208
2016-09-16T08:41:09.380Z,12280
2016-09-16T08:42:09.574Z,12380
2016-09-16T08:43:08.815Z,12424
2016-09-16T08:44:10.546Z,12336
2016-09-16T08:45:10.448Z,12024
2016-09-16T08:46:09.352Z,11672
2016-09-16T08:47:09.902Z,11520
2016-09-16T08:48:09.996Z,11536
2016-09-16T08:49:11.917Z,11612
2016-09-16T08:50:11.257Z,11884
2016-09-16T08:51:08.830Z,12504
2016-09-16T08:52:11.428Z,13544
2016-09-16T08:53:10.292Z,14660
2016-09-16T08:54:11.300Z,15776
2016-09-16T08:55:11.405Z,17056
2016-09-16T08:56:08.795Z,17920
2016-09-16T08:57:10.674Z,19200
2016-09-16T08:58:11.596Z,20736
2016-09-16T08:59:11.231Z,21600
2016-09-16T09:00:09.967Z,21376
2016-09-16T09:01:09.807Z,20800
2016-09-16T09:02:10.478Z,20544
2016-09-16T09:03:10.939Z,20224
2016-09-16T09:04:10.143Z,19904
2016-09-16T09:05:09.935Z,19392
2016-09-16T09:06:10.289Z,18784
2016-09-16T09:07:09.521Z,18112
2016-09-16T09:08:10.152Z,17216
2016-09-16T09:09:09.605Z,16384
2016-09-16T09:10:11.267Z,15636
2016-09-16T09:11:10.302Z,15428
2016-09-16T09:12:10.158Z,15348
2016-09-16T09:13:09.232Z,15084
2016-09-16T09:14:11.045Z,14488
2016-09-16T09:15:10.513Z,13744
2016-09-16T09:16:11.651Z,13632
2016-09-16T09:17:10.515Z,14700
2016-09-16T09:18:12.366Z,16332
2016-09-16T09:19:10.706Z,18528
2016-09-16T09:20:10.542Z,22464
2016-09-16T09:21:10.749Z,23712
2016-09-16T09:22:10.706Z,24096
2016-09-16T09:23:10.692Z,23072
2016-09-16T09:24:10.424Z,21824
2016-09-16T09:25:11.045Z,21600
2016-09-16T09:26:10.281Z,21664
2016-09-16T09:27:10.361Z,22144
2016-09-16T09:28:11.859Z,22688
2016-09-16T09:29:10.374Z,22784
2016-09-16T09:30:10.964Z,30016
2016-09-16T09:31:10.781Z,22016
2016-09-16T09:32:10.851Z,19552
2016-09-16T09:33:12.275Z,17440
2016-09-16T09:34:11.569Z,15704
2016-09-16T09:35:11.043Z,15224
2016-09-16T09:36:11.646Z,15732
2016-09-16T09:37:12.321Z,16896
2016-09-16T09:38:12.481Z,18048
2016-09-16T09:39:11.835Z,18944
2016-09-16T09:40:12.011Z,19744
2016-09-16T09:41:12.935Z,19968
2016-09-16T09:42:12.295Z,20032
2016-09-16T09:43:10.871Z,19872
2016-09-16T09:44:11.906Z,19552
2016-09-16T09:45:12.711Z,19296
2016-09-16T09:46:10.204Z,18784
2016-09-16T09:47:10.529Z,18240
2016-09-16T09:48:10.815Z,18144
2016-09-16T09:49:12.211Z,18976
2016-09-16T09:50:11.030Z,23648
2016-09-16T09:51:10.322Z,22624
2016-09-16T09:52:13.127Z,21152
2016-09-16T09:53:12.424Z,20352
2016-09-16T09:54:13.024Z,20192
2016-09-16T09:55:10.260Z,22112
2016-09-16T09:56:11.885Z,20960
2016-09-16T09:57:11.923Z,20896
2016-09-16T09:58:10.767Z,21600
2016-09-16T09:59:14.173Z,21920
2016-09-16T10:00:13.867Z,21344
2016-09-16T10:01:11.882Z,20480
2016-09-16T10:02:12.500Z,19104
2016-09-16T10:03:13.035Z,17760
2016-09-16T10:04:11.680Z,20640
2016-09-16T10:05:12.710Z,21792
2016-09-16T10:06:11.691Z,20832
2016-09-16T10:07:11.783Z,20544
2016-09-16T10:08:13.189Z,19264
2016-09-16T10:09:12.230Z,19840
2016-09-16T10:10:12.742Z,19232
2016-09-16T10:11:11.488Z,17560
2016-09-16T10:12:12.408Z,17524
2016-09-16T10:13:13.807Z,16772
2016-09-16T10:14:12.810Z,16392
2016-09-16T10:15:11.729Z,16216
2016-09-16T10:16:13.198Z,15496
2016-09-16T10:17:12.645Z,14728
2016-09-16T10:18:13.054Z,15432
2016-09-16T10:19:13.673Z,16432
2016-09-16T10:20:12.049Z,13292
2016-09-16T10:21:14.092Z,13840
2016-09-16T10:22:12.733Z,12324
2016-09-16T10:23:13.003Z,12708
2016-09-16T10:24:12.118Z,12568
2016-09-16T10:25:12.714Z,13512
2016-09-16T10:26:12.013Z,12944
2016-09-16T10:27:13.028Z,13552
2016-09-16T10:28:12.328Z,14040
2016-09-16T10:29:13.133Z,15000
2016-09-16T10:30:12.620Z,15840
2016-09-16T10:31:12.947Z,16556
2016-09-16T10:32:12.202Z,18656
2016-09-16T10:33:12.743Z,18688
2016-09-16T10:34:13.422Z,19392
2016-09-16T10:35:12.970Z,20384
2016-09-16T10:36:12.499Z,21536
2016-09-16T10:37:13.003Z,21792
2016-09-16T10:38:14.217Z,23200
2016-09-16T10:39:11.943Z,24864
2016-09-16T10:40:12.914Z,25216
2016-09-16T10:41:12.727Z,24864
2016-09-16T10:42:11.954Z,26624
2016-09-16T10:43:11.968Z,25632
2016-09-16T10:44:14.040Z,23584
2016-09-16T10:45:13.254Z,23520
2016-09-16T10:46:12.497Z,22688
2016-09-16T10:47:13.169Z,21792
2016-09-16T10:48:12.829Z,21120
2016-09-16T10:49:12.027Z,20480
2016-09-16T10:50:12.816Z,19936
2016-09-16T10:51:13.349Z,19424
2016-09-16T10:52:13.485Z,18944
2016-09-16T10:53:14.918Z,18560
2016-09-16T10:54:11.716Z,18432
2016-09-16T10:55:11.469Z,18528
2016-09-16T10:56:14.655Z,19008
2016-09-16T10:57:11.804Z,19520
2016-09-16T10:58:14.825Z,20576
2016-09-16T10:59:15.110Z,21920
2016-09-16T11:00:14.099Z,23904
2016-09-16T11:01:12.574Z,25248
2016-09-16T11:02:14.057Z,26016
2016-09-16T11:03:12.934Z,26688
2016-09-16T11:04:14.249Z,27360
2016-09-16T11:05:13.721Z,26496
2016-09-16T11:06:12.560Z,25792
2016-09-16T11:07:14.818Z,25472
2016-09-16T11:08:14.926Z,24704
2016-09-16T11:09:14.125Z,24192
2016-09-16T11:10:13.243Z,23776
2016-09-16T11:11:15.078Z,24128
2016-09-16T11:12:14.080Z,26656
2016-09-16T11:13:13.895Z,32672
2016-09-16T11:14:12.055Z,37888
2016-09-16T11:15:13.806Z,40192
2016-09-16T11:16:14.522Z,40896
2016-09-16T11:17:13.169Z,41600
2016-09-16T11:18:12.212Z,40032
2016-09-16T11:19:14.174Z,38176
2016-09-16T11:20:14.570Z,37344
2016-09-16T11:21:12.920Z,35552
2016-09-16T11:22:13.953Z,34688
2016-09-16T11:23:13.856Z,33536
2016-09-16T11:24:14.290Z,33600
2016-09-16T11:25:15.056Z,19872
2016-09-16T11:26:14.012Z,19584
2016-09-16T11:27:14.012Z,20352
2016-09-16T11:28:15.122Z,30944
2016-09-16T11:29:14.939Z,30976
2016-09-16T11:30:13.361Z,28992
2016-09-16T11:31:14.841Z,18688
2016-09-16T11:32:14.592Z,15724
2016-09-16T11:33:14.427Z,12516
2016-09-16T11:34:14.576Z,11128
2016-09-16T11:35:13.269Z,10196
2016-09-16T11:36:14.545Z,9796
2016-09-16T11:37:14.070Z,10160
2016-09-16T11:38:14.203Z,10296
2016-09-16T11:39:14.391Z,11224
2016-09-16T11:40:13.153Z,12340
2016-09-16T11:41:13.859Z,13892
2016-09-16T11:42:14.601Z,15196
2016-09-16T11:43:14.662Z,16960
2016-09-16T11:44:14.601Z,18016
2016-09-16T11:45:15.663Z,18912
2016-09-16T11:46:15.674Z,19424
2016-09-16T11:47:14.917Z,19680
2016-09-16T11:48:14.683Z,19328
2016-09-16T11:49:13.922Z,19296
2016-09-16T11:50:15.078Z,19072
2016-09-16T11:51:15.662Z,18560
2016-09-16T11:52:14.846Z,18944
2016-09-16T11:53:15.486Z,18784
2016-09-16T11:54:16.653Z,18048
2016-09-16T11:55:13.694Z,18592
2016-09-16T11:56:15.892Z,19584
2016-09-16T11:57:15.498Z,20448
2016-09-16T11:58:15.182Z,21056
2016-09-16T11:59:15.573Z,21536
2016-09-16T12:00:15.449Z,22016
2016-09-16T12:01:14.666Z,22080
2016-09-16T12:02:16.358Z,21984
2016-09-16T12:03:14.816Z,22144
2016-09-16T12:04:16.567Z,22112
2016-09-16T12:05:15.546Z,22016
2016-09-16T12:06:15.099Z,21920
2016-09-16T12:07:15.757Z,21504
2016-09-16T12:08:13.983Z,20960
2016-09-16T12:09:15.127Z,20224
2016-09-16T12:10:14.960Z,19584
2016-09-16T12:11:14.905Z,18976
2016-09-16T12:12:16.225Z,18624
2016-09-16T12:13:15.501Z,18464
2016-09-16T12:14:15.619Z,18144
2016-09-16T12:15:14.623Z,17536
2016-09-16T12:16:14.446Z,16544
2016-09-16T12:17:16.444Z,15272
2016-09-16T12:18:15.345Z,14316
2016-09-16T12:19:15.445Z,13488
2016-09-16T12:20:15.941Z,12896
2016-09-16T12:21:15.867Z,12544
2016-09-16T12:22:15.944Z,12392
2016-09-16T12:23:15.560Z,12428
2016-09-16T12:24:15.597Z,12628
2016-09-16T12:25:15.338Z,12976
2016-09-16T12:26:13.258Z,13468
2016-09-16T12:27:16.361Z,14076
2016-09-16T12:28:17.860Z,14788
2016-09-16T12:29:15.826Z,15600
2016-09-16T12:30:16.198Z,16672
2016-09-16T12:31:15.672Z,17408
2016-09-16T12:32:15.737Z,17856
2016-09-16T12:33:15.801Z,17984
2016-09-16T12:34:15.270Z,17920
2016-09-16T12:35:14.651Z,17696
2016-09-16T12:36:14.801Z,17408
2016-09-16T12:37:16.270Z,17184
2016-09-16T12:38:15.638Z,16928
2016-09-16T12:39:18.050Z,16704
2016-09-16T12:40:15.339Z,16544
2016-09-16T12:41:15.309Z,16576
2016-09-16T12:42:15.468Z,16800
2016-09-16T12:43:16.408Z,17280
2016-09-16T12:44:18.742Z,17984
2016-09-16T12:45:16.736Z,18720
2016-09-16T12:46:17.690Z,19360
2016-09-16T12:47:18.988Z,19808
2016-09-16T12:48:17.310Z,20032
2016-09-16T12:49:16.334Z,19616
2016-09-16T12:50:18.670Z,19488
2016-09-16T12:51:16.258Z,19136
2016-09-16T12:52:18.914Z,18848
2016-09-16T12:53:15.478Z,18688
2016-09-16T12:54:17.263Z,18560
2016-09-16T12:55:17.011Z,18464
2016-09-16T12:56:18.055Z,18368
2016-09-16T12:57:17.012Z,18144
2016-09-16T12:58:16.696Z,17856
2016-09-16T12:59:14.008Z,17568
2016-09-16T13:00:15.510Z,17376
2016-09-16T13:01:17.393Z,17312
2016-09-16T13:02:17.720Z,17312
2016-09-16T13:03:17.888Z,17408
2016-09-16T13:04:17.429Z,17504
2016-09-16T13:05:16.906Z,17568
2016-09-16T13:06:19.097Z,17632
2016-09-16T13:07:17.053Z,17696
2016-09-16T13:08:16.603Z,17760
2016-09-16T13:09:17.738Z,17696
2016-09-16T13:10:19.130Z,17568
2016-09-16T13:11:19.124Z,17472
2016-09-16T13:12:19.601Z,17440
2016-09-16T13:13:18.445Z,17600
2016-09-16T13:14:16.658Z,17888
2016-09-16T13:15:17.289Z,18272
2016-09-16T13:16:15.984Z,18784
2016-09-16T13:17:16.802Z,19264
2016-09-16T13:18:16.769Z,19872
2016-09-16T13:19:18.500Z,20864
2016-09-16T13:20:16.901Z,22016
2016-09-16T13:21:16.119Z,24288
2016-09-16T13:22:18.790Z,25344
2016-09-16T13:23:16.901Z,25984
2016-09-16T13:24:19.075Z,26048
2016-09-16T13:25:16.533Z,24992
2016-09-16T13:26:17.864Z,23776
2016-09-16T13:27:17.739Z,22080
2016-09-16T13:28:17.457Z,19904
2016-09-16T13:29:19.891Z,17920
2016-09-16T13:30:18.560Z,16388
2016-09-16T13:31:16.745Z,15532
2016-09-16T13:32:17.454Z,14812
2016-09-16T13:33:16.843Z,14440
2016-09-16T13:34:17.833Z,14132
2016-09-16T13:35:18.253Z,14204
2016-09-16T13:36:19.008Z,14492